createdAt,value
2022-09-03T00:11:50.152Z,16.56
2022-09-03T00:42:07.956Z,16.37
2022-09-03T01:12:20.223Z,16.24
2022-09-03T01:42:33.391Z,16.16
2022-09-03T02:12:38.478Z,16.03
2022-09-03T02:42:42.797Z,15.97
2022-09-03T03:12:46.926Z,16.10
2022-09-03T03:42:51.044Z,16.13
2022-09-03T04:12:56.425Z,16.13
2022-09-03T04:43:00.866Z,15.73
2022-09-03T05:13:06.506Z,15.58
2022-09-03T05:43:10.647Z,15.97
2022-09-03T06:13:14.914Z,15.90
2022-09-03T06:43:19.219Z,16.19
2022-09-03T07:13:24.563Z,15.95
2022-09-03T07:43:29.341Z,16.51
2022-09-03T08:13:33.961Z,16.68
2022-09-03T08:43:47.772Z,16.82
2022-09-03T09:13:57.592Z,20.55
2022-09-03T09:44:06.234Z,20.32
2022-09-03T10:14:18.161Z,19.38
2022-09-03T10:44:35.329Z,19.25
2022-09-03T11:14:42.129Z,23.63
2022-09-03T11:44:51.484Z,28.08
2022-09-03T12:15:03.310Z,29.51
2022-09-03T12:45:10.613Z,25.53
2022-09-03T13:15:23.282Z,25.81
2022-09-03T13:45:32.443Z,24.39
2022-09-03T14:15:45.772Z,23.97
2022-09-03T14:46:19.952Z,27.73
2022-09-03T15:16:32.753Z,24.82
2022-09-03T15:46:57.566Z,21.93
2022-09-03T16:17:04.826Z,21.02
2022-09-03T16:47:12.809Z,19.49
2022-09-03T17:17:28.044Z,19.23
2022-09-03T17:48:07.393Z,19.48
2022-09-03T18:18:18.406Z,19.23
2022-09-03T18:48:47.363Z,18.59
2022-09-03T19:19:26.660Z,18.26
2022-09-03T19:49:59.949Z,17.88
2022-09-03T20:20:14.086Z,17.32
2022-09-03T20:50:25.959Z,16.59
2022-09-03T21:20:36.259Z,16.31
2022-09-03T21:50:58.584Z,16.47
2022-09-03T22:21:13.301Z,16.24
2022-09-03T22:51:21.661Z,15.91
2022-09-03T23:21:29.945Z,15.69
2022-09-03T23:51:44.889Z,15.43
